Main page
METAR-TAF:

METAR-TAF

Airports :

Tan Tan Airport

Tan-Tan, Morocco

latitude: 28-26-54N, longitude: 11-09-41W, elevation: 199 m

Current weather observation

The report was made 27 minutes ago, at 14:00 UTC
Wind 8 kt from the West
Temperature 23°C
Humidity 38%
Pressure 1018 hPa
Visibility: 6000 m

METAR: GMAT 231400Z 26008KT 6000 NSC 23/08 Q1018 NOSIG

Time: 15:27 (14:27 UTC)


TAF: missing

Weather observations and forecasts of more than 4000 airports (METAR and TAF reports).

The available stations are represented by yellow and red dots on the map.

Hover mouse over dot to see the name of the station.

Then click to see weather observations and forecasts.

To change the map : click on the green buttons with a black cross to zoom in, on the green button with a dash to zoom out, or on the green arrows for adjacent maps.


METAR-TAF: